Time;durP1;ratioP1;P1;durP2;ratioP2;P2;SDS_P1;SDS_P2;PMS_P1;PMS_P2;Temp;Humidity;BMP_temperature;BMP_pressure;BME280_temperature;BME280_humidity;BME280_pressure;Samples;Min_cycle;Max_cycle;Signal;HPM_P1;HPM_P2
2021/11/12 00:13:59;;;;;;;22.27;18.08;;;10.70;99.90;;;;;;4894124;29;20091;-75
2021/11/12 00:16:27;;;;;;;22.52;18.65;;;10.70;99.90;;;;;;4894341;29;20036;-75
2021/11/12 00:18:53;;;;;;;23.35;18.05;;;10.70;99.90;;;;;;4879069;29;20025;-76
2021/11/12 00:21:20;;;;;;;20.90;17.67;;;10.70;99.90;;;;;;4894187;29;20363;-75
2021/11/12 00:23:46;;;;;;;20.88;17.38;;;10.70;99.90;;;;;;4894256;29;20067;-76
2021/11/12 00:26:11;;;;;;;22.67;18.17;;;10.70;99.90;;;;;;4889033;29;20052;-75
2021/11/12 00:28:47;;;;;;;21.30;17.40;;;10.70;99.90;;;;;;4895020;29;20020;-76
2021/11/12 00:39:39;;;;;;;20.80;17.25;;;10.70;99.90;;;;;;4881381;29;20500;-75
2021/11/12 00:42:16;;;;;;;22.35;18.52;;;10.70;99.90;;;;;;4878575;29;20033;-74
2021/11/12 00:44:49;;;;;;;24.52;17.85;;;10.70;99.90;;;;;;4896174;29;20025;-76
2021/11/12 00:47:24;;;;;;;22.25;17.13;;;10.70;99.90;;;;;;4884114;29;20130;-74
2021/11/12 00:50:20;;;;;;;22.80;17.48;;;10.70;99.90;;;;;;4900981;29;20478;-75
2021/11/12 00:55:15;;;;;;;21.48;17.70;;;10.70;99.90;;;;;;4899906;29;20028;-74
2021/11/12 00:57:40;;;;;;;24.85;17.80;;;10.70;99.90;;;;;;4882508;29;20036;-75
2021/11/12 01:00:09;;;;;;;21.55;16.77;;;10.70;99.90;;;;;;4907772;29;20036;-74
2021/11/12 01:02:35;;;;;;;20.70;17.65;;;10.70;99.90;;;;;;4913279;29;20504;-75
2021/11/12 01:05:02;;;;;;;21.85;17.63;;;10.70;99.90;;;;;;4912324;29;20021;-76
2021/11/12 01:07:27;;;;;;;20.17;17.45;;;10.80;99.90;;;;;;4913014;29;20033;-75
2021/11/12 01:09:53;;;;;;;22.58;18.55;;;10.70;99.90;;;;;;4881547;29;20498;-75
2021/11/12 01:12:19;;;;;;;23.67;18.48;;;10.70;99.90;;;;;;4897857;29;20119;-76
2021/11/12 01:14:44;;;;;;;23.20;18.73;;;10.70;99.90;;;;;;4899495;29;20028;-73
2021/11/12 01:17:10;;;;;;;20.65;17.90;;;10.70;99.90;;;;;;4897703;29;20029;-75
2021/11/12 01:19:37;;;;;;;20.83;17.17;;;10.80;99.90;;;;;;4882613;29;20012;-75
2021/11/12 01:22:03;;;;;;;21.30;17.50;;;10.70;99.90;;;;;;4882257;29;20048;-75
2021/11/12 01:24:29;;;;;;;19.60;16.95;;;10.70;99.90;;;;;;4913276;29;20380;-76
2021/11/12 01:26:55;;;;;;;22.80;18.45;;;10.80;99.90;;;;;;4899278;29;20040;-76
2021/11/12 01:29:20;;;;;;;19.98;17.52;;;10.70;99.90;;;;;;4882392;29;20477;-75
2021/11/12 01:31:46;;;;;;;22.98;18.75;;;10.70;99.90;;;;;;4881921;29;20037;-75
2021/11/12 01:34:12;;;;;;;24.08;20.40;;;10.70;99.90;;;;;;4897234;29;20035;-76
2021/11/12 01:36:45;;;;;;;24.45;18.58;;;10.70;99.90;;;;;;4899044;29;20039;-75
2021/11/12 01:39:18;;;;;;;22.48;19.15;;;10.70;99.90;;;;;;4898131;29;20089;-75
2021/11/12 01:41:57;;;;;;;22.80;18.67;;;10.70;99.90;;;;;;4882625;29;20430;-74
2021/11/12 01:44:33;;;;;;;23.17;18.83;;;10.70;99.90;;;;;;4882718;29;20490;-75
2021/11/12 01:47:13;;;;;;;22.73;18.77;;;10.70;99.90;;;;;;4898129;29;20104;-74
2021/11/12 01:49:45;;;;;;;21.52;18.80;;;10.70;99.90;;;;;;4899005;29;20124;-75
2021/11/12 01:52:17;;;;;;;23.08;18.20;;;10.70;99.90;;;;;;4893771;29;20132;-75
2021/11/12 01:54:52;;;;;;;;;;;10.70;99.90;;;;;;4881006;29;20032;-75
2021/11/12 01:59:58;;;;;;;23.75;18.27;;;10.70;99.90;;;;;;4879027;29;20375;-74
2021/11/12 02:02:24;;;;;;;24.25;18.08;;;10.70;99.90;;;;;;4879013;29;20081;-75
2021/11/12 02:04:51;;;;;;;25.70;19.23;;;10.60;99.90;;;;;;4880059;29;20085;-75
2021/11/12 02:07:17;;;;;;;23.27;19.17;;;10.60;99.90;;;;;;4877955;29;20025;-75
2021/11/12 02:09:42;;;;;;;23.80;18.10;;;10.60;99.90;;;;;;4878720;29;20033;-75
2021/11/12 02:14:46;;;;;;;22.75;17.83;;;10.60;99.90;;;;;;4898020;29;20482;-74
2021/11/12 02:17:19;;;;;;;22.38;18.45;;;10.60;99.90;;;;;;4881503;29;20025;-74
2021/11/12 02:19:50;;;;;;;23.85;19.58;;;10.50;99.90;;;;;;4898510;29;20031;-75
2021/11/12 02:22:16;;;;;;;23.45;17.73;;;10.50;99.90;;;;;;4898038;29;20025;-74
2021/11/12 02:24:48;;;;;;;23.35;17.85;;;10.50;99.90;;;;;;4898599;29;20040;-75
2021/11/12 02:27:16;;;;;;;23.85;18.25;;;10.50;99.90;;;;;;4897575;29;20493;-75
2021/11/12 02:29:54;;;;;;;23.02;18.70;;;10.50;99.90;;;;;;4898486;29;20036;-74
2021/11/12 02:32:23;;;;;;;24.75;19.85;;;10.40;99.90;;;;;;4898317;29;20036;-75
2021/11/12 02:34:51;;;;;;;27.77;19.20;;;10.40;99.90;;;;;;4880774;29;20031;-76
2021/11/12 02:37:22;;;;;;;23.17;19.20;;;10.40;99.90;;;;;;4880349;29;20025;-75
2021/11/12 02:39:48;;;;;;;26.30;20.33;;;10.30;99.90;;;;;;4881001;29;20025;-74
2021/11/12 02:42:14;;;;;;;25.17;20.40;;;10.30;99.90;;;;;;4880637;29;20350;-75
2021/11/12 02:44:42;;;;;;;23.45;18.40;;;10.30;99.90;;;;;;4898188;29;20470;-76
2021/11/12 02:47:09;;;;;;;24.30;18.92;;;10.20;99.90;;;;;;4897197;29;20040;-75
2021/11/12 02:49:35;;;;;;;23.70;19.30;;;10.20;99.90;;;;;;4897308;29;20033;-75
2021/11/12 02:52:00;;;;;;;24.05;18.40;;;10.20;99.90;;;;;;4897458;29;20031;-75
2021/11/12 02:54:26;;;;;;;24.35;19.17;;;10.10;99.90;;;;;;4881157;29;20033;-75
2021/11/12 02:56:56;;;;;;;23.52;18.33;;;10.10;99.90;;;;;;4896988;29;20675;-74
2021/11/12 02:59:21;;;;;;;25.30;19.35;;;10.10;99.90;;;;;;4896580;29;20477;-74
2021/11/12 03:01:47;;;;;;;24.35;19.55;;;10.10;99.90;;;;;;4896329;29;20042;-73
2021/11/12 03:04:14;;;;;;;28.10;19.67;;;10.00;99.90;;;;;;4896906;29;20026;-76
2021/11/12 03:06:41;;;;;;;28.75;21.10;;;10.00;99.90;;;;;;4885088;29;20032;-75
2021/11/12 03:09:09;;;;;;;23.98;18.35;;;10.00;99.90;;;;;;4880263;29;20020;-75
2021/11/12 03:11:36;;;;;;;24.88;18.73;;;10.00;99.90;;;;;;4896559;29;20461;-75
2021/11/12 03:14:02;;;;;;;26.42;19.40;;;9.90;99.90;;;;;;4880271;29;20458;-74
2021/11/12 03:16:29;;;;;;;25.30;19.20;;;9.90;99.90;;;;;;4896900;29;20037;-75
2021/11/12 03:18:56;;;;;;;26.42;18.23;;;9.80;99.90;;;;;;4880692;29;20029;-75
2021/11/12 03:21:24;;;;;;;22.75;18.77;;;9.80;99.90;;;;;;4897548;29;20025;-76
2021/11/12 03:23:58;;;;;;;25.98;19.08;;;9.90;99.90;;;;;;4896525;29;20028;-73
2021/11/12 03:29:08;;;;;;;23.77;19.45;;;9.80;99.90;;;;;;4895813;29;20060;-76
2021/11/12 04:04:27;;;;;;;30.10;22.95;;;9.60;99.90;;;;;;4896538;29;20024;-75
2021/11/12 04:07:23;;;;;;;32.03;21.17;;;9.50;99.90;;;;;;4879268;29;20119;-75
2021/11/12 04:39:54;;;;;;;29.73;21.83;;;9.10;99.90;;;;;;4896066;29;20139;-75
2021/11/12 05:09:47;;;;;;;24.42;19.58;;;8.00;99.90;;;;;;4866191;29;20041;-75
2021/11/12 05:12:38;;;;;;;23.48;19.27;;;8.00;99.90;;;;;;4895790;29;20017;-76
2021/11/12 05:45:14;;;;;;;22.30;17.77;;;7.30;99.90;;;;;;4898577;29;20074;-74
2021/11/12 05:50:53;;;;;;;25.60;18.48;;;7.30;99.90;;;;;;4899362;29;20417;-74
2021/11/12 05:56:03;;;;;;;19.98;16.42;;;7.10;99.90;;;;;;4898749;29;20100;-74
2021/11/12 05:58:29;;;;;;;19.98;16.27;;;7.10;99.90;;;;;;4898503;29;20021;-74
2021/11/12 06:00:55;;;;;;;18.10;15.65;;;7.10;99.90;;;;;;4878519;29;20029;-74
2021/11/12 06:03:20;;;;;;;18.60;15.13;;;7.00;99.90;;;;;;4898092;29;20025;-74
2021/11/12 06:05:46;;;;;;;18.25;15.73;;;7.00;99.90;;;;;;4881267;29;20088;-74
2021/11/12 06:08:12;;;;;;;18.00;15.52;;;6.90;99.90;;;;;;4883167;29;20056;-73
2021/11/12 06:10:38;;;;;;;19.15;15.25;;;6.90;99.90;;;;;;4879942;29;20394;-74
2021/11/12 06:13:05;;;;;;;19.58;15.35;;;6.90;99.90;;;;;;4880158;29;20027;-74
2021/11/12 06:15:31;;;;;;;20.40;16.42;;;6.80;99.90;;;;;;4890471;29;20415;-74
2021/11/12 06:17:57;;;;;;;18.98;15.80;;;6.80;99.90;;;;;;4876986;29;20115;-73
2021/11/12 06:20:23;;;;;;;17.77;14.65;;;6.80;99.90;;;;;;4871257;29;20438;-74
2021/11/12 06:22:49;;;;;;;19.30;15.50;;;6.70;99.90;;;;;;4888612;29;20276;-73
2021/11/12 06:25:14;;;;;;;22.13;15.82;;;6.70;99.90;;;;;;4870764;29;20478;-74
2021/11/12 06:27:40;;;;;;;19.15;16.42;;;6.70;99.90;;;;;;4886231;29;20029;-73
2021/11/12 06:30:08;;;;;;;18.70;16.05;;;6.70;99.90;;;;;;4892563;29;20119;-73
2021/11/12 06:32:33;;;;;;;21.27;16.92;;;6.60;99.90;;;;;;4898381;29;20043;-73
2021/11/12 06:35:00;;;;;;;19.92;15.80;;;6.60;99.90;;;;;;4895048;29;20065;-73
2021/11/12 06:37:26;;;;;;;18.10;15.32;;;6.60;99.90;;;;;;4881340;29;20021;-74
2021/11/12 06:39:51;;;;;;;18.65;15.85;;;6.60;99.90;;;;;;4893924;29;20069;-73
2021/11/12 06:42:23;;;;;;;22.90;17.70;;;6.60;99.90;;;;;;4887791;29;20728;-74
2021/11/12 06:50:04;;;;;;;18.40;15.48;;;6.40;99.90;;;;;;4889256;29;20051;-74
2021/11/12 06:52:31;;;;;;;18.48;15.35;;;6.40;99.90;;;;;;4862712;29;20021;-73
2021/11/12 06:55:01;;;;;;;15.98;13.77;;;6.40;99.90;;;;;;4876219;29;20176;-73
2021/11/12 06:57:27;;;;;;;17.50;15.15;;;6.30;99.90;;;;;;4898003;29;20444;-74
2021/11/12 06:59:52;;;;;;;21.45;16.27;;;6.30;99.90;;;;;;4897842;29;20029;-73
2021/11/12 07:02:21;;;;;;;20.92;16.65;;;6.30;99.90;;;;;;4879999;29;20028;-75
2021/11/12 07:04:48;;;;;;;18.65;15.50;;;6.20;99.90;;;;;;4896259;29;20508;-73
2021/11/12 07:07:14;;;;;;;18.42;15.38;;;6.20;99.90;;;;;;4897058;29;20028;-73
2021/11/12 07:09:40;;;;;;;20.77;17.20;;;6.20;99.90;;;;;;4896937;29;20088;-74
2021/11/12 07:12:07;;;;;;;21.13;16.52;;;6.20;99.90;;;;;;4897226;29;20031;-74
2021/11/12 07:14:32;;;;;;;20.95;17.05;;;6.20;99.90;;;;;;4897844;29;20063;-73
2021/11/12 07:16:58;;;;;;;18.73;15.98;;;6.20;99.90;;;;;;4879687;29;20056;-73
2021/11/12 07:19:24;;;;;;;21.35;16.70;;;6.10;99.90;;;;;;4897510;29;20072;-74
2021/11/12 07:21:49;;;;;;;19.00;16.75;;;6.10;99.90;;;;;;4897336;29;20031;-75
2021/11/12 07:24:15;;;;;;;18.63;15.40;;;6.10;99.90;;;;;;4879820;29;20632;-74
2021/11/12 07:26:41;;;;;;;21.52;17.45;;;6.10;99.90;;;;;;4896453;29;20124;-74
2021/11/12 07:29:07;;;;;;;18.88;15.73;;;6.10;99.90;;;;;;4879547;29;20040;-74
2021/11/12 07:31:33;;;;;;;19.70;16.05;;;6.10;99.90;;;;;;4896863;29;20020;-74
2021/11/12 07:34:00;;;;;;;16.20;14.48;;;6.10;99.90;;;;;;4896745;29;20025;-74
2021/11/12 07:36:35;;;;;;;19.02;14.93;;;6.10;99.90;;;;;;4897412;29;20112;-74
2021/11/12 07:39:06;;;;;;;22.58;16.42;;;6.10;99.90;;;;;;4879793;29;20029;-74
2021/11/12 07:44:11;;;;;;;20.52;16.40;;;6.10;99.90;;;;;;4896179;29;20028;-73
2021/11/12 07:47:19;;;;;;;17.92;15.90;;;6.10;99.90;;;;;;4897349;29;20039;-74
2021/11/12 07:49:26;;;;;;;18.33;15.10;;;6.10;99.90;;;;;;4886802;29;20192;-74
2021/11/12 07:51:52;;;;;;;19.13;15.45;;;6.00;99.90;;;;;;4879598;29;20044;-74
2021/11/12 07:54:19;;;;;;;21.88;16.95;;;6.00;99.90;;;;;;4880117;29;20028;-74
2021/11/12 07:56:45;;;;;;;19.67;16.02;;;6.00;99.90;;;;;;4893760;29;20496;-74
2021/11/12 07:59:11;;;;;;;20.92;16.20;;;6.00;99.90;;;;;;4877963;29;20028;-75
2021/11/12 08:01:37;;;;;;;20.10;15.40;;;6.00;99.90;;;;;;4878073;29;20032;-74
2021/11/12 08:04:04;;;;;;;20.00;16.35;;;6.00;99.90;;;;;;4895568;29;20024;-74
2021/11/12 08:06:32;;;;;;;22.20;16.52;;;6.00;99.90;;;;;;4895174;29;20048;-74
2021/11/12 08:09:04;;;;;;;22.52;17.95;;;6.00;99.90;;;;;;4895414;29;20390;-74
2021/11/12 08:11:37;;;;;;;20.02;15.50;;;6.00;99.90;;;;;;4895447;29;20044;-74
2021/11/12 08:22:01;;;;;;;20.17;15.65;;;6.00;99.90;;;;;;4896006;29;20044;-74
2021/11/12 08:24:44;;;;;;;20.60;15.50;;;6.00;99.90;;;;;;4896250;29;20032;-73
2021/11/12 08:27:33;;;;;;;18.38;16.05;;;6.00;99.90;;;;;;4878865;29;20141;-73
2021/11/12 08:32:50;;;;;;;18.33;15.10;;;6.00;99.90;;;;;;4895135;29;20123;-76
2021/11/12 08:35:46;;;;;;;19.23;14.95;;;6.00;99.90;;;;;;4896205;29;20033;-74
2021/11/12 08:38:25;;;;;;;20.33;16.52;;;6.00;99.90;;;;;;4894304;29;20035;-73
2021/11/12 08:43:26;;;;;;;18.45;15.32;;;6.00;99.90;;;;;;4896011;29;20040;-75
2021/11/12 08:48:25;;;;;;;21.90;17.00;;;6.00;99.90;;;;;;4891308;29;20068;-79
2021/11/12 08:50:52;;;;;;;20.90;17.27;;;6.10;99.90;;;;;;4870916;29;20050;-85
2021/11/12 08:53:18;;;;;;;23.73;18.00;;;6.10;99.90;;;;;;4884318;29;20025;-71
2021/11/12 08:55:46;;;;;;;24.75;19.23;;;6.10;99.90;;;;;;4891648;29;20020;-73
2021/11/12 08:58:13;;;;;;;23.15;18.80;;;6.10;99.90;;;;;;4895780;29;20056;-72
2021/11/12 09:00:41;;;;;;;25.23;19.23;;;6.10;99.90;;;;;;4895322;29;20052;-72
2021/11/12 09:03:08;;;;;;;23.30;18.35;;;6.10;99.90;;;;;;4893645;29;20017;-76
2021/11/12 09:05:34;;;;;;;23.40;18.83;;;6.10;99.90;;;;;;4879157;29;20518;-75
2021/11/12 09:08:01;;;;;;;27.63;20.55;;;6.10;99.90;;;;;;4877756;29;20017;-75
2021/11/12 09:10:28;;;;;;;25.30;19.90;;;6.10;99.90;;;;;;4898341;29;20389;-74
2021/11/12 09:12:58;;;;;;;26.15;19.52;;;6.20;99.90;;;;;;4898802;29;20032;-77
2021/11/12 09:15:29;;;;;;;24.55;20.20;;;6.20;99.90;;;;;;4882762;29;20039;-72
2021/11/12 09:17:56;;;;;;;25.25;19.35;;;6.20;99.90;;;;;;4899692;29;20020;-73
2021/11/12 09:20:22;;;;;;;28.35;21.23;;;6.20;99.90;;;;;;4898842;29;20033;-73
2021/11/12 09:22:48;;;;;;;25.23;19.40;;;6.20;99.90;;;;;;4898824;29;20505;-74
2021/11/12 09:25:14;;;;;;;25.40;20.30;;;6.20;99.90;;;;;;4898553;29;20036;-75
2021/11/12 09:27:40;;;;;;;27.70;21.63;;;6.20;99.90;;;;;;4898930;29;20478;-74
2021/11/12 09:30:08;;;;;;;29.13;22.25;;;6.30;99.90;;;;;;4897604;29;20056;-74
2021/11/12 09:32:34;;;;;;;28.23;21.92;;;6.30;99.90;;;;;;4899595;29;20083;-77
2021/11/12 09:35:00;;;;;;;27.50;20.77;;;6.30;99.90;;;;;;4896784;29;20075;-74
2021/11/12 09:37:25;;;;;;;29.02;22.23;;;6.30;99.90;;;;;;4891062;29;20020;-74
2021/11/12 09:39:57;;;;;;;27.80;20.92;;;6.30;99.90;;;;;;4898139;29;20191;-74
2021/11/12 09:42:31;;;;;;;29.30;22.25;;;6.30;99.90;;;;;;4897176;29;20032;-74
2021/11/12 09:45:02;;;;;;;28.88;22.00;;;6.30;99.90;;;;;;4882208;29;20037;-76
2021/11/12 09:47:30;;;;;;;28.50;21.63;;;6.30;99.90;;;;;;4881746;29;20025;-73
2021/11/12 09:50:01;;;;;;;29.60;22.02;;;6.30;99.90;;;;;;4899583;29;20397;-73
2021/11/12 09:52:30;;;;;;;46.50;21.83;;;6.40;99.90;;;;;;4898633;29;20024;-76
2021/11/12 09:54:56;;;;;;;31.70;23.83;;;6.40;99.90;;;;;;4898807;29;20092;-72
2021/11/12 09:57:22;;;;;;;32.67;23.85;;;6.40;99.90;;;;;;4898480;29;20478;-70
2021/11/12 09:59:58;;;;;;;27.70;21.50;;;6.50;99.90;;;;;;4899897;29;20035;-73
2021/11/12 10:02:27;;;;;;;30.67;23.02;;;6.50;99.90;;;;;;4899032;29;20040;-70
2021/11/12 10:04:53;;;;;;;32.08;23.35;;;6.50;99.90;;;;;;4898224;29;20390;-74
2021/11/12 10:07:20;;;;;;;32.45;24.00;;;6.50;99.90;;;;;;4899989;29;20024;-73
2021/11/12 10:10:01;;;;;;;30.25;22.27;;;6.50;99.90;;;;;;4898496;29;20390;-73
2021/11/12 10:12:35;;;;;;;35.03;24.88;;;6.50;99.90;;;;;;4881450;29;20017;-72
2021/11/12 10:15:16;;;;;;;27.35;21.27;;;6.50;99.90;;;;;;4881576;29;20075;-72
2021/11/12 10:17:47;;;;;;;29.63;22.02;;;6.50;99.90;;;;;;4881018;29;20025;-70
2021/11/12 10:20:17;;;;;;;32.33;24.13;;;6.50;99.90;;;;;;4897542;29;20032;-75
2021/11/12 10:22:45;;;;;;;34.38;24.13;;;6.60;99.90;;;;;;4898578;29;20481;-74
2021/11/12 10:25:11;;;;;;;34.53;24.73;;;6.60;99.90;;;;;;4899152;29;20088;-73
2021/11/12 10:27:38;;;;;;;32.50;24.55;;;6.60;99.90;;;;;;4880892;29;20029;-72
2021/11/12 10:30:14;;;;;;;34.08;24.23;;;6.60;99.90;;;;;;4897891;29;20047;-74
2021/11/12 10:32:41;;;;;;;27.92;22.58;;;6.60;99.90;;;;;;4897546;29;20069;-72
2021/11/12 10:35:21;;;;;;;28.05;21.52;;;6.70;99.90;;;;;;4905414;29;20031;-74
2021/11/12 10:37:47;;;;;;;30.13;21.83;;;6.70;99.90;;;;;;4896751;29;20028;-75
2021/11/12 10:40:22;;;;;;;33.50;24.50;;;6.70;99.90;;;;;;4897343;29;20088;-77
2021/11/12 10:42:51;;;;;;;30.63;23.90;;;6.80;99.90;;;;;;4899797;29;20032;-76
2021/11/12 10:45:23;;;;;;;30.77;24.02;;;6.80;99.90;;;;;;4912383;29;20060;-77
2021/11/12 10:48:06;;;;;;;31.38;23.77;;;6.80;99.90;;;;;;4913056;29;20076;-74
2021/11/12 10:50:36;;;;;;;31.33;24.52;;;6.80;99.90;;;;;;4880530;29;20037;-75
2021/11/12 10:53:14;;;;;;;30.25;24.05;;;6.80;99.90;;;;;;4896069;29;20025;-73
2021/11/12 10:55:43;;;;;;;31.73;24.48;;;6.80;99.90;;;;;;4889467;29;20446;-73
2021/11/12 10:58:12;;;;;;;30.27;23.10;;;6.90;99.90;;;;;;4889807;29;20053;-76
2021/11/12 11:00:45;;;;;;;29.80;24.27;;;6.90;99.90;;;;;;4879391;29;20044;-72
2021/11/12 11:03:13;;;;;;;27.42;22.38;;;7.00;99.90;;;;;;4895166;29;20029;-81
2021/11/12 11:05:43;;;;;;;29.58;22.95;;;7.10;99.90;;;;;;4893734;29;20032;-76
2021/11/12 11:08:18;;;;;;;26.77;22.38;;;7.10;99.90;;;;;;4879779;29;20081;-75
2021/11/12 11:10:47;;;;;;;26.67;23.17;;;7.20;99.90;;;;;;4880469;29;20044;-78
2021/11/12 11:13:22;;;;;;;34.65;25.83;;;7.20;99.90;;;;;;4895747;29;20438;-78
2021/11/12 11:16:02;;;;;;;29.73;24.20;;;7.20;99.90;;;;;;4875620;29;20452;-79
2021/11/12 11:18:40;;;;;;;28.92;23.55;;;7.30;99.90;;;;;;4878583;29;20500;-76
2021/11/12 11:21:11;;;;;;;32.17;25.35;;;7.40;99.90;;;;;;4866818;29;20029;-73
2021/11/12 11:23:49;;;;;;;31.73;25.30;;;7.40;99.90;;;;;;4883351;29;20032;-74
2021/11/12 11:26:39;;;;;;;33.05;25.13;;;7.40;99.90;;;;;;4888661;29;20212;-72
2021/11/12 11:29:08;;;;;;;32.60;25.40;;;7.50;99.90;;;;;;4896149;29;20104;-78
2021/11/12 11:31:34;;;;;;;32.42;24.88;;;7.60;99.90;;;;;;4879738;29;20044;-75
2021/11/12 11:34:02;;;;;;;29.92;24.33;;;7.60;99.90;;;;;;4878225;29;20032;-79
2021/11/12 11:36:31;;;;;;;32.63;26.13;;;7.70;99.90;;;;;;4896508;29;20066;-72
2021/11/12 11:39:00;;;;;;;31.55;24.27;;;7.80;99.90;;;;;;4881897;29;20028;-78
2021/11/12 11:41:26;;;;;;;31.13;23.88;;;7.90;99.90;;;;;;4893300;29;20119;-72
2021/11/12 11:43:53;;;;;;;34.47;27.13;;;7.90;99.90;;;;;;4888123;29;20418;-82
2021/11/12 11:46:35;;;;;;;30.38;24.17;;;8.00;99.90;;;;;;4880063;29;20056;-75
2021/11/12 11:49:07;;;;;;;31.83;24.42;;;8.10;99.90;;;;;;4908423;29;20573;-78
2021/11/12 11:51:38;;;;;;;34.55;26.83;;;8.20;99.90;;;;;;4915268;29;20048;-80
2021/11/12 11:54:12;;;;;;;31.60;24.83;;;8.20;99.90;;;;;;4898649;29;20043;-74
2021/11/12 11:56:58;;;;;;;27.55;23.55;;;8.30;99.90;;;;;;4902446;29;20021;-74
2021/11/12 11:59:25;;;;;;;30.60;24.83;;;8.40;99.90;;;;;;4895071;29;20028;-77
2021/11/12 12:01:52;;;;;;;31.63;24.33;;;8.40;99.90;;;;;;4915542;29;20036;-74
2021/11/12 12:04:17;;;;;;;32.83;25.75;;;8.50;99.90;;;;;;4914794;29;20024;-77
2021/11/12 12:07:03;;;;;;;30.88;24.50;;;8.50;99.90;;;;;;4897396;29;20020;-76
2021/11/12 12:09:59;;;;;;;31.30;24.27;;;8.60;99.90;;;;;;4914828;29;20020;-70
2021/11/12 12:12:30;;;;;;;33.90;25.38;;;8.60;99.90;;;;;;4893923;29;20031;-72
2021/11/12 12:15:05;;;;;;;32.08;25.45;;;8.70;99.90;;;;;;4910742;29;20036;-72
2021/11/12 12:17:34;;;;;;;32.72;24.85;;;8.80;99.90;;;;;;4896684;29;20031;-72
2021/11/12 13:25:32;;;;;;;33.08;26.05;;;9.40;99.90;;;;;;4899271;29;20033;-70
2021/11/12 13:28:05;;;;;;;31.38;23.90;;;9.40;99.90;;;;;;4898873;29;20035;-70
2021/11/12 13:30:30;;;;;;;34.08;25.50;;;9.40;99.90;;;;;;4898559;29;20120;-70
2021/11/12 13:32:56;;;;;;;30.65;25.95;;;9.40;99.90;;;;;;4899163;29;20454;-71
2021/11/12 13:35:32;;;;;;;34.72;27.02;;;9.40;99.90;;;;;;4881295;29;20029;-71
2021/11/12 13:37:58;;;;;;;35.22;25.90;;;9.40;99.90;;;;;;4898902;29;20029;-72
2021/11/12 13:40:30;;;;;;;33.17;26.20;;;9.40;99.90;;;;;;4887316;29;20033;-70
2021/11/12 13:42:55;;;;;;;33.72;26.33;;;9.40;99.90;;;;;;4898113;29;20025;-70
2021/11/12 13:45:23;;;;;;;34.53;27.27;;;9.40;99.90;;;;;;4898736;29;20442;-71
2021/11/12 13:48:18;;;;;;;32.60;25.80;;;9.40;99.90;;;;;;4901603;29;20044;-72
2021/11/12 13:51:02;;;;;;;28.88;23.98;;;9.40;99.90;;;;;;4891747;29;20450;-71
2021/11/12 13:53:31;;;;;;;31.25;25.63;;;9.40;99.90;;;;;;4917918;29;20076;-71
2021/11/12 13:55:59;;;;;;;29.95;23.98;;;9.40;99.90;;;;;;4899067;29;20033;-71
2021/11/12 13:58:26;;;;;;;33.70;27.52;;;9.40;99.90;;;;;;4879612;29;20037;-74
2021/11/12 14:00:54;;;;;;;32.03;25.05;;;9.40;99.90;;;;;;4897912;29;20080;-72
2021/11/12 14:03:39;;;;;;;31.13;25.42;;;9.40;99.90;;;;;;4907161;29;20036;-73
2021/11/12 14:06:11;;;;;;;31.98;24.73;;;9.30;99.90;;;;;;4901430;29;20033;-76
2021/11/12 14:08:42;;;;;;;32.75;25.13;;;9.30;99.90;;;;;;4882105;29;20072;-71
2021/11/12 14:11:19;;;;;;;33.17;25.58;;;9.30;99.90;;;;;;4880722;29;20029;-75
2021/11/12 14:13:46;;;;;;;32.88;26.50;;;9.30;99.90;;;;;;4906639;29;20029;-74
2021/11/12 14:16:24;;;;;;;35.63;27.20;;;9.30;99.90;;;;;;4884006;29;20032;-79
2021/11/12 14:24:44;;;;;;;36.25;27.23;;;9.20;99.90;;;;;;4898654;29;20100;-75
2021/11/12 14:35:23;;;;;;;32.70;26.30;;;9.10;99.90;;;;;;4898379;29;20036;-75
2021/11/12 14:45:56;;;;;;;37.65;27.08;;;9.10;99.90;;;;;;4897705;29;19974;-75
2021/11/12 14:48:27;;;;;;;31.45;25.00;;;9.00;99.90;;;;;;4896829;29;20044;-75
2021/11/12 14:51:11;;;;;;;35.50;26.58;;;9.00;99.90;;;;;;4896733;29;20135;-76
2021/11/12 14:56:09;;;;;;;32.63;25.45;;;9.00;99.90;;;;;;4897830;29;20039;-77
2021/11/12 14:58:39;;;;;;;32.10;25.33;;;9.00;99.90;;;;;;4898126;29;20115;-75
2021/11/12 15:01:13;;;;;;;32.13;26.40;;;8.90;99.90;;;;;;4895760;29;20028;-77
2021/11/12 15:03:42;;;;;;;30.60;25.10;;;8.90;99.90;;;;;;4896568;29;20032;-78
2021/11/12 15:06:13;;;;;;;34.05;26.00;;;8.90;99.90;;;;;;4896840;29;20365;-77
2021/11/12 15:08:51;;;;;;;34.47;26.50;;;8.90;99.90;;;;;;4895975;29;20377;-75
2021/11/12 15:11:20;;;;;;;33.25;26.58;;;8.90;99.90;;;;;;4897508;29;20068;-81
2021/11/12 15:13:47;;;;;;;29.48;24.83;;;8.90;99.90;;;;;;4895753;29;20031;-76
2021/11/12 15:16:22;;;;;;;35.40;26.30;;;8.90;99.90;;;;;;4897288;29;20029;-77
2021/11/12 15:18:49;;;;;;;32.45;25.00;;;8.90;99.90;;;;;;4896175;29;20021;-78
2021/11/12 15:21:19;;;;;;;31.17;23.73;;;8.80;99.90;;;;;;4895561;29;20052;-79
2021/11/12 15:27:03;;;;;;;29.05;23.25;;;8.80;99.90;;;;;;4897334;29;20044;-80
2021/11/12 15:34:03;;;;;;;29.45;23.42;;;8.70;99.90;;;;;;4897167;29;20040;-76
2021/11/12 15:36:32;;;;;;;32.35;25.83;;;8.70;99.90;;;;;;4895505;29;20107;-75
2021/11/12 15:39:07;;;;;;;31.10;25.42;;;8.70;99.90;;;;;;4895700;29;20039;-75
2021/11/12 15:44:38;;;;;;;30.25;24.83;;;8.60;99.90;;;;;;4897230;29;20060;-76
2021/11/12 15:47:09;;;;;;;32.35;25.80;;;8.60;99.90;;;;;;4893202;29;20367;-75
2021/11/12 15:49:37;;;;;;;34.58;27.00;;;8.60;99.90;;;;;;4895840;29;20120;-76
2021/11/12 15:52:09;;;;;;;33.80;26.13;;;8.60;99.90;;;;;;4895300;29;20036;-76
2021/11/12 15:55:24;;;;;;;33.40;26.50;;;8.50;99.90;;;;;;4896616;29;20025;-75
2021/11/12 16:05:30;;;;;;;28.55;23.15;;;8.50;99.90;;;;;;4896302;29;20092;-75
2021/11/12 16:21:14;;;;;;;31.75;23.40;;;8.30;99.90;;;;;;4896865;29;20139;-75
2021/11/12 16:23:57;;;;;;;29.95;23.75;;;8.30;99.90;;;;;;4895875;29;20473;-75
2021/11/12 16:26:27;;;;;;;27.92;22.50;;;8.30;99.90;;;;;;4895758;29;20107;-75
2021/11/12 16:31:31;;;;;;;28.67;23.40;;;8.30;99.90;;;;;;4895812;29;20045;-76
2021/11/12 16:34:00;;;;;;;26.30;21.98;;;8.30;99.90;;;;;;4894924;29;20537;-76
2021/11/12 16:36:27;;;;;;;28.70;24.27;;;8.30;99.90;;;;;;4894619;29;20029;-76
2021/11/12 16:38:52;;;;;;;28.88;22.88;;;8.30;99.90;;;;;;4895164;29;20063;-75
2021/11/12 16:41:23;;;;;;;27.15;22.40;;;8.20;99.90;;;;;;4895243;29;20052;-78
2021/11/12 16:46:46;;;;;;;26.70;21.30;;;8.30;99.90;;;;;;4896497;29;20028;-77
2021/11/12 16:49:23;;;;;;;24.80;20.65;;;8.20;99.90;;;;;;4907581;29;20044;-75
2021/11/12 16:54:21;;;;;;;24.45;20.70;;;8.30;99.90;;;;;;4914952;29;20483;-76
2021/11/12 16:56:59;;;;;;;24.10;19.88;;;8.20;99.90;;;;;;4915153;29;20034;-76
2021/11/12 16:59:32;;;;;;;32.22;24.55;;;8.20;99.90;;;;;;4897858;29;20047;-76
2021/11/12 17:02:10;;;;;;;40.58;28.27;;;8.20;99.90;;;;;;4897713;29;20039;-78
2021/11/12 17:04:44;;;;;;;37.97;28.38;;;8.20;99.90;;;;;;4913534;29;20032;-76
2021/11/12 17:07:19;;;;;;;37.13;27.40;;;8.20;99.90;;;;;;4897806;29;20040;-76
2021/11/12 17:13:05;;;;;;;29.42;22.13;;;8.20;99.90;;;;;;4914266;29;20059;-77
2021/11/12 17:20:33;;;;;;;25.27;20.27;;;8.20;99.90;;;;;;4894350;29;20135;-74
2021/11/12 17:23:32;;;;;;;;;;;8.20;99.90;;;;;;4910717;29;20032;-76
2021/11/12 17:45:15;;;;;;;21.20;16.60;;;8.20;99.90;;;;;;4898748;29;20092;-74
2021/11/12 17:47:42;;;;;;;22.08;17.75;;;8.20;99.90;;;;;;4897792;29;20565;-71
2021/11/12 17:52:57;;;;;;;18.27;15.85;;;8.20;99.90;;;;;;4898633;29;20092;-76
2021/11/12 18:06:46;;;;;;;17.95;15.60;;;8.20;99.90;;;;;;4887247;29;20074;-74
2021/11/12 18:09:40;;;;;;;19.42;16.52;;;8.20;99.90;;;;;;4907002;29;20476;-74
2021/11/12 21:47:23;;;;;;;12.00;10.13;;;9.90;99.90;;;;;;4916567;29;20118;-75
2021/11/12 21:49:48;;;;;;;10.57;9.43;;;9.90;99.90;;;;;;4910705;29;20048;-74
2021/11/12 21:52:14;;;;;;;11.80;9.75;;;9.90;99.90;;;;;;4898637;29;20645;-73
2021/11/12 21:54:41;;;;;;;11.45;9.73;;;9.90;99.90;;;;;;4915670;29;20441;-74
2021/11/12 21:57:07;;;;;;;12.32;10.13;;;9.90;99.90;;;;;;4916560;29;20055;-73
2021/11/12 21:59:32;;;;;;;12.20;10.18;;;9.90;99.90;;;;;;4917029;29;20067;-73
2021/11/12 22:01:58;;;;;;;12.70;9.70;;;9.90;99.90;;;;;;4900228;29;20076;-73
2021/11/12 22:04:24;;;;;;;11.57;9.82;;;10.00;99.90;;;;;;4881371;29;20033;-73
2021/11/12 22:06:50;;;;;;;13.68;11.38;;;10.00;99.90;;;;;;4880170;29;20028;-74
2021/11/12 22:09:15;;;;;;;13.18;10.90;;;10.00;99.90;;;;;;4899511;29;20385;-74
2021/11/12 22:11:41;;;;;;;13.45;11.93;;;10.00;99.90;;;;;;4891359;29;20051;-73
2021/11/12 22:14:07;;;;;;;11.95;10.18;;;10.00;99.90;;;;;;4915488;29;20017;-74
2021/11/12 22:16:34;;;;;;;11.90;10.07;;;10.00;99.90;;;;;;4899227;29;20374;-74
2021/11/12 22:19:02;;;;;;;14.55;11.55;;;10.00;99.90;;;;;;4899284;29;20028;-75